Time;durP1;ratioP1;P1;durP2;ratioP2;P2;SDS_P1;SDS_P2;PMS_P1;PMS_P2;Temp;Humidity;BMP_temperature;BMP_pressure;BME280_temperature;BME280_humidity;BME280_pressure;Samples;Min_cycle;Max_cycle;Signal;HPM_P1;HPM_P2
2023/08/09 00:01:06;;;;;;;4.40;1.40;;;;;;;17.61;100.00;96183.66;5038298;28;20205;-70
2023/08/09 00:03:33;;;;;;;1.80;0.90;;;;;;;17.61;100.00;96177.53;5038696;28;20221;-70
2023/08/09 00:06:00;;;;;;;3.05;1.45;;;;;;;17.50;100.00;96176.44;5038530;28;20201;-70
2023/08/09 00:08:26;;;;;;;1.58;1.13;;;;;;;17.61;100.00;96190.88;5037581;28;20205;-70
2023/08/09 00:10:53;;;;;;;0.98;0.73;;;;;;;17.60;100.00;96192.69;5038624;28;20311;-69
2023/08/09 00:13:19;;;;;;;1.42;0.90;;;;;;;17.62;100.00;96187.97;5038225;28;20228;-70
2023/08/09 00:15:47;;;;;;;2.42;1.00;;;;;;;17.85;100.00;96198.78;5037819;28;20209;-70
2023/08/09 00:18:14;;;;;;;1.58;0.85;;;;;;;17.68;100.00;96188.94;5037986;28;20209;-70
2023/08/09 00:20:40;;;;;;;2.20;0.88;;;;;;;17.56;100.00;96207.50;5038795;28;20206;-70
2023/08/09 00:23:07;;;;;;;4.28;0.80;;;;;;;17.69;100.00;96204.69;5036702;28;20259;-70
2023/08/09 00:25:33;;;;;;;2.35;1.10;;;;;;;17.67;100.00;96205.94;5038017;28;20201;-70
2023/08/09 00:28:00;;;;;;;1.15;0.60;;;;;;;17.61;100.00;96205.00;5037774;28;20237;-70
2023/08/09 00:30:27;;;;;;;1.20;0.77;;;;;;;17.75;100.00;96209.94;5037659;28;20383;-70
2023/08/09 00:32:55;;;;;;;2.13;1.27;;;;;;;17.84;100.00;96210.47;5038037;28;20229;-70
2023/08/09 00:35:21;;;;;;;1.55;0.80;;;;;;;17.70;100.00;96208.19;5038197;28;20205;-70
2023/08/09 00:37:48;;;;;;;1.77;0.80;;;;;;;17.75;100.00;96222.47;5036766;28;20518;-70
2023/08/09 00:40:14;;;;;;;2.95;0.93;;;;;;;17.69;100.00;96223.34;5037603;28;20899;-70
2023/08/09 00:42:41;;;;;;;0.75;0.75;;;;;;;17.77;100.00;96225.75;5037897;28;20586;-70
2023/08/09 00:45:09;;;;;;;1.13;0.88;;;;;;;17.75;100.00;96225.13;5037577;28;20197;-70
2023/08/09 00:47:37;;;;;;;1.77;1.00;;;;;;;17.75;100.00;96217.94;5036513;28;20209;-69
2023/08/09 00:50:06;;;;;;;1.25;0.80;;;;;;;17.84;100.00;96213.94;5037552;28;20205;-69
2023/08/09 00:52:33;;;;;;;1.55;0.77;;;;;;;17.69;100.00;96202.03;5037668;28;20511;-70
2023/08/09 00:55:03;;;;;;;1.75;1.38;;;;;;;17.79;100.00;96202.34;5037138;28;20292;-70
2023/08/09 00:57:30;;;;;;;0.88;0.60;;;;;;;17.71;100.00;96202.63;5036883;28;20270;-70
2023/08/09 00:59:57;;;;;;;1.52;0.80;;;;;;;17.68;100.00;96191.59;5037312;28;20217;-70
2023/08/09 01:02:24;;;;;;;3.58;0.88;;;;;;;17.62;100.00;96193.31;5037339;28;20225;-70
2023/08/09 01:04:51;;;;;;;4.10;1.00;;;;;;;17.50;100.00;96191.56;5037048;28;20216;-70
2023/08/09 01:07:28;;;;;;;1.38;0.82;;;;;;;17.64;100.00;96179.75;5036654;28;20220;-70
2023/08/09 01:10:02;;;;;;;1.38;0.85;;;;;;;17.70;100.00;96170.88;5037372;28;20368;-70
2023/08/09 01:12:32;;;;;;;1.27;0.80;;;;;;;17.58;100.00;96176.13;5037133;28;20232;-70
2023/08/09 01:15:00;;;;;;;0.70;0.65;;;;;;;17.43;100.00;96170.34;5037090;28;20208;-70
2023/08/09 01:17:28;;;;;;;1.13;0.85;;;;;;;17.40;100.00;96169.94;5036583;28;20202;-70
2023/08/09 01:19:57;;;;;;;1.63;0.90;;;;;;;17.36;100.00;96168.75;5036834;28;20201;-70
2023/08/09 01:22:29;;;;;;;2.53;0.90;;;;;;;17.43;100.00;96170.34;5037339;28;20240;-70
2023/08/09 01:25:02;;;;;;;2.00;0.98;;;;;;;17.53;100.00;96164.50;5036840;28;20299;-70
2023/08/09 01:27:29;;;;;;;4.97;1.00;;;;;;;17.37;100.00;96165.06;5036021;28;20197;-70
2023/08/09 01:29:56;;;;;;;1.55;0.85;;;;;;;17.36;100.00;96166.94;5037114;28;20205;-70
2023/08/09 01:32:23;;;;;;;1.98;0.85;;;;;;;17.45;100.00;96173.59;5036952;28;20224;-70
2023/08/09 01:34:50;;;;;;;2.28;0.82;;;;;;;17.34;100.00;96166.31;5035751;28;20209;-70
2023/08/09 01:37:21;;;;;;;1.77;0.73;;;;;;;17.48;100.00;96156.38;5035569;28;20502;-70
2023/08/09 01:39:50;;;;;;;2.08;0.82;;;;;;;17.54;100.00;96160.78;5036734;28;21068;-70
2023/08/09 01:42:20;;;;;;;2.28;0.70;;;;;;;17.56;100.00;96170.19;5036401;28;21233;-70
2023/08/09 01:44:47;;;;;;;0.70;0.60;;;;;;;17.13;100.00;96173.88;5036217;28;20250;-70
2023/08/09 01:47:15;;;;;;;2.33;1.02;;;;;;;17.40;100.00;96168.13;5036039;28;20201;-69
2023/08/09 01:49:45;;;;;;;1.70;1.05;;;;;;;17.39;100.00;96168.34;5036471;28;20209;-70
2023/08/09 01:52:12;;;;;;;0.88;0.88;;;;;;;17.20;100.00;96175.44;5036656;28;20233;-70
2023/08/09 01:54:39;;;;;;;2.22;0.70;;;;;;;17.27;100.00;96176.25;5036306;28;20529;-70
2023/08/09 01:57:05;;;;;;;2.15;1.20;;;;;;;17.33;100.00;96180.66;5035968;28;20467;-70
2023/08/09 01:59:33;;;;;;;1.65;0.88;;;;;;;17.46;100.00;96177.06;5035952;28;20213;-70
2023/08/09 02:02:01;;;;;;;2.72;0.93;;;;;;;17.17;100.00;96185.69;5036751;28;20217;-70
2023/08/09 02:04:28;;;;;;;0.90;0.77;;;;;;;17.22;100.00;96181.38;5036133;28;20212;-70
2023/08/09 02:06:54;;;;;;;2.30;1.05;;;;;;;17.23;100.00;96180.34;5035577;28;20944;-70
2023/08/09 02:09:21;;;;;;;1.33;1.00;;;;;;;17.25;100.00;96186.28;5035988;28;20212;-70
2023/08/09 02:11:48;;;;;;;2.25;1.30;;;;;;;17.34;100.00;96186.84;5036362;28;20208;-70
2023/08/09 02:14:14;;;;;;;1.40;0.90;;;;;;;17.28;100.00;96172.53;5035678;28;20604;-70
2023/08/09 02:16:42;;;;;;;3.15;0.93;;;;;;;17.44;100.00;96163.97;5035942;28;20568;-70
2023/08/09 02:19:09;;;;;;;1.40;0.60;;;;;;;17.40;100.00;96149.47;5035421;28;20220;-70
2023/08/09 02:21:37;;;;;;;1.25;0.82;;;;;;;17.35;100.00;96153.81;5035783;28;20209;-70
2023/08/09 02:24:05;;;;;;;1.40;0.85;;;;;;;17.37;100.00;96157.88;5035602;28;20207;-70
2023/08/09 02:26:32;;;;;;;0.73;0.73;;;;;;;17.31;100.00;96160.63;5035773;28;20212;-70
2023/08/09 02:28:58;;;;;;;1.35;1.20;;;;;;;17.30;100.00;96157.16;5035392;28;20320;-70
2023/08/09 02:31:26;;;;;;;1.33;0.80;;;;;;;17.21;100.00;96153.09;5036269;28;20205;-70
2023/08/09 02:33:54;;;;;;;0.73;0.63;;;;;;;17.47;100.00;96155.53;5032820;28;20274;-70
2023/08/09 02:36:22;;;;;;;1.63;0.80;;;;;;;17.22;100.00;96154.75;5035176;28;20205;-70
2023/08/09 02:38:48;;;;;;;1.25;0.65;;;;;;;17.27;100.00;96149.59;5035161;28;20761;-70
2023/08/09 02:41:15;;;;;;;2.35;0.95;;;;;;;17.32;100.00;96168.41;5036235;28;20698;-70
2023/08/09 02:43:41;;;;;;;0.73;0.70;;;;;;;17.28;100.00;96151.22;5035814;28;20235;-69
2023/08/09 02:46:08;;;;;;;1.23;0.75;;;;;;;17.30;100.00;96164.34;5035304;28;20208;-70
2023/08/09 02:48:34;;;;;;;1.25;0.85;;;;;;;17.03;100.00;96178.06;5034594;28;20216;-70
2023/08/09 02:51:03;;;;;;;1.20;0.95;;;;;;;17.27;100.00;96176.25;5036091;28;20201;-70
2023/08/09 02:53:34;;;;;;;1.95;0.70;;;;;;;17.34;100.00;96187.63;5035290;28;20286;-70
2023/08/09 02:56:01;;;;;;;3.38;0.75;;;;;;;17.07;100.00;96188.06;5035495;28;20402;-70
2023/08/09 02:58:28;;;;;;;2.53;0.82;;;;;;;17.11;100.00;96197.25;5035227;28;20208;-70
2023/08/09 03:00:55;;;;;;;1.25;0.70;;;;;;;17.00;100.00;96200.59;5035622;28;20203;-70
2023/08/09 03:03:21;;;;;;;1.55;0.70;;;;;;;17.16;100.00;96206.22;5035547;28;20229;-70
2023/08/09 03:05:49;;;;;;;1.17;0.77;;;;;;;17.34;100.00;96197.50;5035372;28;20670;-70
2023/08/09 03:08:17;;;;;;;1.25;0.77;;;;;;;17.13;100.00;96200.50;5034903;28;20209;-70
2023/08/09 03:10:44;;;;;;;2.72;0.80;;;;;;;17.22;100.00;96194.69;5035554;28;20197;-70
2023/08/09 03:13:10;;;;;;;1.00;0.70;;;;;;;17.21;100.00;96198.38;5035510;28;20239;-70
2023/08/09 03:15:37;;;;;;;1.75;0.93;;;;;;;17.19;100.00;96205.75;5035155;28;20611;-70
2023/08/09 03:18:04;;;;;;;1.67;0.90;;;;;;;17.22;100.00;96205.34;5034169;28;20575;-70
2023/08/09 03:20:30;;;;;;;0.98;0.70;;;;;;;17.25;100.00;96204.94;5035448;28;20589;-70
2023/08/09 03:22:59;;;;;;;0.70;0.50;;;;;;;17.16;100.00;96210.72;5034968;28;20884;-70
2023/08/09 03:25:27;;;;;;;4.18;1.08;;;;;;;17.35;100.00;96210.59;5035313;28;20240;-70
2023/08/09 03:27:54;;;;;;;1.48;0.80;;;;;;;17.15;100.00;96220.56;5034343;28;20205;-70
2023/08/09 03:30:20;;;;;;;1.80;1.10;;;;;;;17.21;100.00;96211.69;5035516;28;20215;-70
2023/08/09 03:32:47;;;;;;;0.95;0.80;;;;;;;17.21;100.00;96219.69;5035042;28;20229;-70
2023/08/09 03:35:14;;;;;;;1.55;0.95;;;;;;;17.13;100.00;96217.31;5036232;28;20205;-69
2023/08/09 03:37:41;;;;;;;0.93;0.80;;;;;;;17.13;100.00;96219.97;5035297;28;20206;-70
2023/08/09 03:40:12;;;;;;;1.05;0.70;;;;;;;17.19;100.00;96216.41;5035918;28;20394;-70
2023/08/09 03:42:40;;;;;;;2.03;1.00;;;;;;;17.21;100.00;96213.56;5035624;28;20221;-70
2023/08/09 03:45:07;;;;;;;1.90;1.00;;;;;;;17.17;100.00;96223.81;5035702;28;20197;-70
2023/08/09 03:47:35;;;;;;;1.25;0.80;;;;;;;16.96;100.00;96220.72;5034815;28;20205;-70
2023/08/09 03:50:02;;;;;;;2.17;1.10;;;;;;;17.09;100.00;96224.09;5035495;28;20205;-70
2023/08/09 03:52:28;;;;;;;2.05;1.38;;;;;;;17.04;100.00;96217.78;5037085;28;20232;-69
2023/08/09 03:54:55;;;;;;;2.67;1.00;;;;;;;16.83;100.00;96217.34;5035597;28;20237;-70
2023/08/09 03:57:22;;;;;;;1.38;0.90;;;;;;;17.02;100.00;96221.69;5035763;28;20593;-70
2023/08/09 03:59:50;;;;;;;1.70;0.73;;;;;;;17.19;100.00;96221.75;5039568;28;20554;-70
2023/08/09 04:02:17;;;;;;;1.63;1.25;;;;;;;17.15;100.00;96233.88;5039695;28;20307;-70
2023/08/09 04:04:44;;;;;;;2.67;1.10;;;;;;;17.00;100.00;96235.22;5038635;28;20201;-70
2023/08/09 04:07:10;;;;;;;3.10;1.02;;;;;;;17.03;100.00;96232.16;5038457;28;20205;-70
2023/08/09 04:09:37;;;;;;;2.08;1.00;;;;;;;17.05;100.00;96231.91;5039110;28;20208;-70
2023/08/09 04:12:04;;;;;;;2.50;1.40;;;;;;;17.10;100.00;96233.69;5038382;28;20219;-70
2023/08/09 04:14:31;;;;;;;3.50;1.00;;;;;;;17.01;100.00;96228.06;5039380;28;20225;-70
2023/08/09 04:16:58;;;;;;;1.02;0.90;;;;;;;17.25;100.00;96239.56;5038302;28;20205;-70
2023/08/09 04:19:26;;;;;;;2.28;1.15;;;;;;;17.18;100.00;96240.59;5038636;28;20970;-70
2023/08/09 04:21:53;;;;;;;4.07;1.05;;;;;;;17.02;100.00;96240.31;5038885;28;20592;-70
2023/08/09 04:24:20;;;;;;;1.42;1.00;;;;;;;17.21;100.00;96241.00;5038783;28;20201;-70
2023/08/09 04:26:47;;;;;;;0.93;0.70;;;;;;;16.95;100.00;96236.91;5038531;28;20201;-70
2023/08/09 04:29:13;;;;;;;1.70;0.90;;;;;;;17.12;100.00;96236.97;5037798;28;20212;-70
2023/08/09 04:31:40;;;;;;;5.80;1.00;;;;;;;17.12;100.00;96238.81;5038551;28;20215;-70
2023/08/09 04:34:08;;;;;;;2.90;1.15;;;;;;;17.26;100.00;96243.84;5038999;28;20391;-70
2023/08/09 04:36:34;;;;;;;3.10;1.30;;;;;;;17.09;100.00;96248.06;5038498;28;20212;-70
2023/08/09 04:39:01;;;;;;;1.85;1.00;;;;;;;17.10;100.00;96235.56;5037425;28;20949;-70
2023/08/09 04:41:28;;;;;;;1.02;0.73;;;;;;;16.79;100.00;96240.06;5038678;28;20209;-70
2023/08/09 04:43:54;;;;;;;1.77;0.80;;;;;;;16.92;100.00;96229.38;5038472;28;20225;-70
2023/08/09 04:46:21;;;;;;;0.85;0.70;;;;;;;17.05;100.00;96242.56;5038472;28;20623;-70
2023/08/09 04:48:48;;;;;;;2.45;1.60;;;;;;;16.95;100.00;96248.34;5037541;28;20704;-70
2023/08/09 04:51:18;;;;;;;1.40;1.05;;;;;;;17.12;100.00;96242.28;5038628;28;20201;-70
2023/08/09 04:53:45;;;;;;;0.93;0.80;;;;;;;16.84;100.00;96249.06;5038627;28;20244;-70
2023/08/09 04:56:12;;;;;;;6.82;1.27;;;;;;;17.07;100.00;96235.16;5038277;28;20220;-70
2023/08/09 04:58:39;;;;;;;1.83;1.02;;;;;;;17.08;100.00;96241.09;5037000;28;20202;-70
2023/08/09 05:01:05;;;;;;;1.25;0.68;;;;;;;17.06;100.00;96236.22;5038432;28;20203;-70
2023/08/09 05:03:32;;;;;;;1.13;0.90;;;;;;;17.18;100.00;96236.13;5038904;28;20271;-69
2023/08/09 05:05:58;;;;;;;2.35;1.02;;;;;;;17.09;100.00;96231.25;5037582;28;20204;-70
2023/08/09 05:08:26;;;;;;;2.15;1.35;;;;;;;17.34;100.00;96234.78;5037273;28;20229;-70
2023/08/09 05:10:53;;;;;;;1.85;1.25;;;;;;;16.93;100.00;96220.31;5038412;28;20628;-70
2023/08/09 05:13:19;;;;;;;1.67;1.10;;;;;;;17.18;100.00;96220.13;5037666;28;20221;-70
2023/08/09 05:15:46;;;;;;;1.58;0.82;;;;;;;16.88;100.00;96214.81;5037834;28;20231;-70
2023/08/09 05:18:13;;;;;;;1.23;0.63;;;;;;;17.15;100.00;96212.56;5037444;28;20236;-69
2023/08/09 05:20:39;;;;;;;1.52;1.10;;;;;;;17.13;100.00;96217.31;5037161;28;20904;-70
2023/08/09 05:23:05;;;;;;;2.42;0.95;;;;;;;17.11;100.00;96223.88;5037785;28;20636;-70
2023/08/09 05:25:33;;;;;;;1.33;0.93;;;;;;;17.42;100.00;96215.84;5037427;28;20204;-70
2023/08/09 05:27:59;;;;;;;4.30;0.90;;;;;;;17.00;100.00;96215.78;5037362;28;20211;-70
2023/08/09 05:30:25;;;;;;;2.38;1.00;;;;;;;17.15;100.00;96225.88;5037633;28;20221;-70
2023/08/09 05:32:52;;;;;;;2.33;1.13;;;;;;;17.16;100.00;96230.16;5036589;28;20251;-70
2023/08/09 05:35:19;;;;;;;1.42;0.90;;;;;;;17.02;100.00;96219.84;5037756;28;20331;-70
2023/08/09 05:37:45;;;;;;;3.90;1.63;;;;;;;16.95;100.00;96224.41;5036939;28;20902;-70
2023/08/09 05:40:13;;;;;;;2.75;1.35;;;;;;;17.08;100.00;96226.16;5037569;28;20221;-70
2023/08/09 05:42:42;;;;;;;4.00;1.08;;;;;;;17.28;100.00;96220.47;5036914;28;20866;-70
2023/08/09 05:45:09;;;;;;;3.03;0.90;;;;;;;17.06;100.00;96220.25;5037107;28;20800;-70
2023/08/09 05:47:36;;;;;;;4.43;1.40;;;;;;;17.05;100.00;96223.94;5036761;28;20201;-70
2023/08/09 05:50:03;;;;;;;1.13;0.80;;;;;;;17.06;100.00;96226.38;5036816;28;20201;-70
2023/08/09 05:52:29;;;;;;;3.63;0.70;;;;;;;17.22;100.00;96216.00;5037588;28;20225;-70
2023/08/09 05:54:56;;;;;;;1.77;0.90;;;;;;;17.16;100.00;96214.19;5036923;28;20231;-70
2023/08/09 05:57:22;;;;;;;0.95;0.80;;;;;;;17.17;100.00;96215.84;5036436;28;20204;-70
2023/08/09 05:59:50;;;;;;;7.25;1.85;;;;;;;17.46;100.00;96223.16;5036952;28;21224;-70
2023/08/09 06:02:16;;;;;;;2.15;0.85;;;;;;;17.47;100.00;96227.47;5036798;28;20231;-70
2023/08/09 06:04:44;;;;;;;2.08;0.95;;;;;;;17.49;100.00;96232.56;5036718;28;20574;-69
2023/08/09 06:07:11;;;;;;;2.50;1.60;;;;;;;17.38;100.00;96228.78;5036225;28;20278;-70
2023/08/09 06:09:38;;;;;;;1.83;0.90;;;;;;;17.41;100.00;96224.88;5036839;28;20211;-69
2023/08/09 06:12:06;;;;;;;1.25;0.90;;;;;;;17.48;100.00;96217.66;5035327;28;20302;-69
2023/08/09 06:14:34;;;;;;;1.00;0.60;;;;;;;17.69;100.00;96217.22;5036037;28;20227;-70
2023/08/09 06:17:01;;;;;;;2.33;1.02;;;;;;;17.54;100.00;96230.06;5035074;28;20208;-69
2023/08/09 06:19:28;;;;;;;2.60;0.90;;;;;;;17.50;100.00;96227.06;5035927;28;20662;-70
2023/08/09 06:21:55;;;;;;;1.52;0.95;;;;;;;17.38;100.00;96226.13;5035970;28;20217;-70
2023/08/09 06:24:21;;;;;;;1.48;0.65;;;;;;;17.35;100.00;96231.88;5036419;28;20234;-70
2023/08/09 06:26:48;;;;;;;1.83;0.80;;;;;;;17.40;100.00;96234.72;5035017;28;20201;-70
2023/08/09 06:29:15;;;;;;;1.35;1.13;;;;;;;17.54;100.00;96235.41;5034253;28;20272;-70
2023/08/09 06:31:42;;;;;;;5.10;1.13;;;;;;;17.62;100.00;96232.47;5035613;28;20197;-70
2023/08/09 06:34:10;;;;;;;0.90;0.82;;;;;;;17.78;100.00;96236.19;5035994;28;20302;-70
2023/08/09 06:36:36;;;;;;;1.13;0.90;;;;;;;17.51;100.00;96231.31;5036014;28;20201;-70
2023/08/09 06:39:03;;;;;;;4.40;1.02;;;;;;;17.31;100.00;96236.03;5035274;28;20208;-70
2023/08/09 06:41:30;;;;;;;1.45;0.70;;;;;;;17.63;100.00;96232.25;5035810;28;20233;-70
2023/08/09 06:43:56;;;;;;;1.55;1.15;;;;;;;17.60;100.00;96240.66;5036132;28;20217;-70
2023/08/09 06:46:23;;;;;;;1.85;1.35;;;;;;;17.55;100.00;96234.38;5036439;28;20575;-70
2023/08/09 06:48:49;;;;;;;2.20;0.80;;;;;;;17.70;100.00;96235.66;5035524;28;20311;-70
2023/08/09 06:51:18;;;;;;;0.95;0.52;;;;;;;17.99;100.00;96224.25;5034051;28;20208;-70
2023/08/09 06:53:45;;;;;;;1.27;0.90;;;;;;;17.48;100.00;96229.09;5035289;28;20225;-70
2023/08/09 06:56:11;;;;;;;2.28;1.02;;;;;;;17.70;100.00;96224.97;5035196;28;20211;-70
2023/08/09 06:58:38;;;;;;;2.80;1.20;;;;;;;17.85;100.00;96222.78;5034190;28;21060;-70
2023/08/09 07:01:09;;;;;;;1.20;0.85;;;;;;;18.01;100.00;96223.00;5030024;28;20247;-69
2023/08/09 07:03:35;;;;;;;5.97;0.90;;;;;;;18.26;100.00;96222.94;5033994;28;20236;-70
2023/08/09 07:06:03;;;;;;;1.10;0.60;;;;;;;18.24;100.00;96227.69;5033211;28;20199;-70
2023/08/09 07:08:31;;;;;;;3.53;1.20;;;;;;;18.50;100.00;96226.28;5032802;28;20205;-70
2023/08/09 07:10:57;;;;;;;1.65;1.10;;;;;;;18.33;100.00;96225.31;5032419;28;20205;-70
2023/08/09 07:13:25;;;;;;;1.58;1.30;;;;;;;18.37;100.00;96221.13;5032774;28;20582;-69
2023/08/09 07:15:52;;;;;;;4.13;1.17;;;;;;;18.43;100.00;96228.25;5033276;28;20241;-69
2023/08/09 07:18:18;;;;;;;0.95;0.75;;;;;;;18.38;100.00;96230.78;5032771;28;20208;-70
2023/08/09 07:20:45;;;;;;;0.88;0.75;;;;;;;18.40;100.00;96228.69;5033086;28;20201;-70
2023/08/09 07:23:11;;;;;;;1.40;0.68;;;;;;;18.25;100.00;96231.97;5033003;28;20223;-70
2023/08/09 07:25:39;;;;;;;1.80;1.00;;;;;;;18.41;100.00;96224.97;5034059;28;20216;-69
2023/08/09 07:28:06;;;;;;;0.85;0.65;;;;;;;18.07;100.00;96227.44;5032627;28;20201;-69
2023/08/09 07:30:33;;;;;;;2.20;0.85;;;;;;;18.21;100.00;96228.13;5034240;28;20874;-70
2023/08/09 07:33:00;;;;;;;1.30;1.00;;;;;;;18.18;100.00;96233.94;5034381;28;20228;-70
2023/08/09 07:35:26;;;;;;;1.00;0.88;;;;;;;18.22;100.00;96227.09;5037769;28;20225;-69
2023/08/09 07:37:53;;;;;;;0.95;0.60;;;;;;;18.36;100.00;96229.38;5036673;28;21052;-70
2023/08/09 07:40:20;;;;;;;1.58;0.98;;;;;;;18.04;100.00;96232.41;5036728;28;20576;-70
2023/08/09 07:42:48;;;;;;;1.10;0.90;;;;;;;18.39;100.00;96231.59;5033462;28;20282;-70
2023/08/09 07:45:14;;;;;;;1.00;0.70;;;;;;;18.42;100.00;96234.63;5036918;28;20290;-70
2023/08/09 07:47:42;;;;;;;1.13;0.80;;;;;;;18.28;100.00;96235.03;5035739;28;20689;-70
2023/08/09 07:50:10;;;;;;;1.92;1.08;;;;;;;18.36;100.00;96232.03;5036453;28;20696;-70
2023/08/09 07:52:37;;;;;;;1.05;0.88;;;;;;;18.07;100.00;96237.28;5035772;28;20225;-69
2023/08/09 07:55:05;;;;;;;0.88;0.80;;;;;;;18.17;100.00;96230.44;5036337;28;20232;-70
2023/08/09 07:57:32;;;;;;;0.77;0.77;;;;;;;18.14;100.00;96238.03;5036129;28;20201;-70
2023/08/09 08:00:00;;;;;;;1.23;0.70;;;;;;;18.13;100.00;96242.56;5035268;28;20205;-70
2023/08/09 08:02:26;;;;;;;1.60;0.80;;;;;;;18.03;100.00;96244.13;5035476;28;20232;-70
2023/08/09 08:04:53;;;;;;;0.93;0.63;;;;;;;17.98;100.00;96249.28;5035652;28;20662;-69
2023/08/09 08:07:19;;;;;;;1.25;0.88;;;;;;;18.09;100.00;96252.03;5035836;28;20201;-70
2023/08/09 08:09:46;;;;;;;1.77;1.10;;;;;;;17.97;100.00;96253.00;5034867;28;20318;-70
2023/08/09 08:12:13;;;;;;;2.22;0.82;;;;;;;17.79;100.00;96259.16;5036048;28;20228;-70
2023/08/09 08:14:40;;;;;;;2.28;0.75;;;;;;;18.06;100.00;96263.16;5032723;28;20221;-70
2023/08/09 08:17:08;;;;;;;2.15;0.80;;;;;;;18.41;100.00;96253.53;5031141;28;20212;-70
2023/08/09 08:19:34;;;;;;;0.82;0.65;;;;;;;18.23;100.00;96258.06;5033340;28;20248;-70
2023/08/09 08:22:01;;;;;;;7.50;1.20;;;;;;;18.15;100.00;96261.00;5033725;28;20240;-70
2023/08/09 08:24:28;;;;;;;1.23;0.70;;;;;;;18.07;100.00;96261.28;5034659;28;20212;-70
2023/08/09 08:26:55;;;;;;;0.77;0.68;;;;;;;18.30;100.00;96272.13;5033517;28;20236;-70
2023/08/09 08:29:22;;;;;;;1.17;0.95;;;;;;;18.27;100.00;96272.59;5034173;28;20304;-70
2023/08/09 08:31:49;;;;;;;1.00;0.57;;;;;;;18.28;100.00;96268.88;5034029;28;20209;-70
2023/08/09 08:34:17;;;;;;;1.77;0.68;;;;;;;18.45;100.00;96268.84;5033918;28;20359;-70
2023/08/09 08:36:44;;;;;;;3.15;1.30;;;;;;;18.33;100.00;96274.34;5033620;28;20681;-70
2023/08/09 08:39:14;;;;;;;0.90;0.65;;;;;;;18.36;100.00;96280.88;5033215;28;20294;-70
2023/08/09 08:41:42;;;;;;;0.95;0.40;;;;;;;18.43;100.00;96283.44;5032718;28;20229;-70
2023/08/09 08:44:08;;;;;;;0.70;0.70;;;;;;;18.43;100.00;96278.94;5032309;28;20259;-70
2023/08/09 08:46:35;;;;;;;1.00;0.90;;;;;;;18.56;100.00;96292.13;5034045;28;20204;-70
2023/08/09 08:49:05;;;;;;;2.72;1.17;;;;;;;18.78;100.00;96295.94;5032519;28;20197;-70
2023/08/09 08:51:34;;;;;;;1.00;0.77;;;;;;;18.76;100.00;96297.19;5033027;28;20197;-70
2023/08/09 08:54:01;;;;;;;2.72;0.82;;;;;;;18.79;100.00;96300.25;5032786;28;20228;-70
2023/08/09 08:56:30;;;;;;;0.80;0.63;;;;;;;18.63;100.00;96292.84;5033034;28;20254;-69
2023/08/09 08:58:57;;;;;;;1.80;0.80;;;;;;;18.86;100.00;96292.94;5032997;28;20209;-70
2023/08/09 09:01:25;;;;;;;1.10;0.70;;;;;;;18.93;100.00;96307.03;5033555;28;20201;-70
2023/08/09 09:03:52;;;;;;;2.33;0.80;;;;;;;19.12;100.00;96305.97;5032507;28;21160;-70
2023/08/09 09:06:19;;;;;;;1.13;0.88;;;;;;;19.35;100.00;96314.06;5032949;28;21173;-70
2023/08/09 09:08:54;;;;;;;0.93;0.85;;;;;;;19.26;100.00;96320.78;5033078;28;20271;-70
2023/08/09 09:11:21;;;;;;;0.90;0.65;;;;;;;18.90;100.00;96312.81;5032995;28;20201;-70
2023/08/09 09:13:50;;;;;;;1.05;0.70;;;;;;;18.89;100.00;96305.03;5033774;28;20300;-70
2023/08/09 09:16:17;;;;;;;1.95;0.70;;;;;;;18.82;100.00;96307.78;5033289;28;20232;-70
2023/08/09 09:18:46;;;;;;;1.85;0.90;;;;;;;18.97;100.00;96310.88;5032965;28;20208;-70
2023/08/09 09:21:14;;;;;;;1.42;1.10;;;;;;;19.08;100.00;96312.78;5033258;28;20209;-70
2023/08/09 09:23:41;;;;;;;0.90;0.52;;;;;;;19.00;100.00;96302.41;5032750;28;20221;-70
2023/08/09 09:26:10;;;;;;;1.65;0.90;;;;;;;18.98;100.00;96301.84;5033211;28;20194;-70
2023/08/09 09:28:39;;;;;;;0.70;0.63;;;;;;;19.19;100.00;96304.00;5032878;28;20791;-70
2023/08/09 09:31:06;;;;;;;1.13;0.82;;;;;;;19.09;100.00;96309.09;5033502;28;20217;-70
2023/08/09 09:33:34;;;;;;;1.83;0.73;;;;;;;19.17;100.00;96306.09;5033121;28;20232;-70
2023/08/09 09:36:01;;;;;;;0.57;0.50;;;;;;;19.22;100.00;96303.53;5033157;28;21194;-70
2023/08/09 09:38:28;;;;;;;2.17;1.02;;;;;;;19.21;100.00;96302.75;5032807;28;20284;-70
2023/08/09 09:40:56;;;;;;;0.73;0.50;;;;;;;19.26;100.00;96302.88;5033472;28;20205;-70
2023/08/09 09:43:25;;;;;;;1.92;0.80;;;;;;;19.49;100.00;96299.44;5032888;28;20283;-70
2023/08/09 09:45:54;;;;;;;1.90;0.80;;;;;;;19.44;100.00;96312.69;5032612;28;20205;-70
2023/08/09 09:48:21;;;;;;;0.85;0.70;;;;;;;19.45;100.00;96307.09;5033114;28;20201;-70
2023/08/09 09:50:49;;;;;;;1.33;0.73;;;;;;;19.44;100.00;96310.03;5032099;28;20213;-70
2023/08/09 09:53:16;;;;;;;1.33;0.60;;;;;;;19.40;100.00;96308.81;5032497;28;20283;-70
2023/08/09 09:55:43;;;;;;;1.25;0.73;;;;;;;19.35;100.00;96317.53;5030947;28;20223;-70
2023/08/09 09:58:12;;;;;;;2.05;0.38;;;;;;;19.29;100.00;96314.97;5033275;28;20272;-70
2023/08/09 10:00:44;;;;;;;1.85;0.88;;;;;;;19.65;100.00;96310.25;5033186;28;20317;-70
2023/08/09 10:03:13;;;;;;;0.93;0.70;;;;;;;19.44;100.00;96315.38;5032249;28;20221;-70
2023/08/09 10:05:44;;;;;;;1.30;0.57;;;;;;;19.70;100.00;96311.22;5032547;28;20228;-70
2023/08/09 10:08:12;;;;;;;1.77;1.00;;;;;;;19.94;100.00;96320.09;5031535;28;20227;-70
2023/08/09 10:10:41;;;;;;;1.13;0.85;;;;;;;19.99;100.00;96304.97;5031847;28;20201;-70
2023/08/09 10:13:09;;;;;;;1.38;0.63;;;;;;;19.99;100.00;96310.31;5032589;28;20252;-70
2023/08/09 10:15:40;;;;;;;0.38;0.38;;;;;;;20.07;100.00;96309.94;5032652;28;20225;-70
2023/08/09 10:18:12;;;;;;;1.27;0.80;;;;;;;20.44;100.00;96305.97;5031909;28;20205;-70
2023/08/09 10:20:44;;;;;;;3.05;0.70;;;;;;;20.20;100.00;96304.38;5032147;28;20293;-70
2023/08/09 10:23:20;;;;;;;0.85;0.68;;;;;;;20.31;100.00;96312.41;5033092;28;20584;-70
2023/08/09 10:25:48;;;;;;;0.50;0.50;;;;;;;20.16;100.00;96319.25;5032103;28;20327;-70
2023/08/09 10:28:15;;;;;;;1.52;0.73;;;;;;;20.18;100.00;96311.81;5031563;28;20207;-70
2023/08/09 10:30:47;;;;;;;1.10;0.70;;;;;;;20.53;100.00;96309.88;5032020;28;20239;-70
2023/08/09 10:33:18;;;;;;;1.48;0.70;;;;;;;20.50;100.00;96302.34;5032136;28;20306;-70
2023/08/09 10:35:50;;;;;;;1.90;0.80;;;;;;;20.43;100.00;96315.84;5032173;28;20228;-70
2023/08/09 10:38:19;;;;;;;0.93;0.65;;;;;;;20.13;100.00;96308.22;5031538;28;20209;-70
2023/08/09 10:40:52;;;;;;;1.58;0.93;;;;;;;20.25;100.00;96307.16;5030628;28;20225;-70
2023/08/09 10:43:20;;;;;;;1.58;0.85;;;;;;;20.51;100.00;96306.66;5030470;28;21093;-70
2023/08/09 10:45:48;;;;;;;2.63;1.00;;;;;;;20.50;100.00;96297.78;5031490;28;21139;-70
2023/08/09 10:48:25;;;;;;;1.50;0.85;;;;;;;20.74;100.00;96298.59;5031047;28;20202;-70
2023/08/09 10:51:02;;;;;;;1.35;1.00;;;;;;;20.95;100.00;96296.03;5031204;28;20223;-70
2023/08/09 10:53:29;;;;;;;1.58;0.65;;;;;;;20.82;100.00;96296.31;5032002;28;20227;-70
2023/08/09 10:55:57;;;;;;;0.88;0.60;;;;;;;21.19;100.00;96297.56;5031817;28;20225;-70
2023/08/09 10:58:28;;;;;;;0.82;0.60;;;;;;;21.14;100.00;96292.13;5030792;28;20205;-70
2023/08/09 11:00:55;;;;;;;1.80;0.55;;;;;;;20.99;100.00;96295.34;5031916;28;20578;-70
2023/08/09 11:03:23;;;;;;;1.05;0.50;;;;;;;21.06;100.00;96295.19;5031220;28;21058;-70
2023/08/09 11:05:50;;;;;;;0.80;0.80;;;;;;;20.91;100.00;96292.22;5031399;28;20201;-70
2023/08/09 11:08:19;;;;;;;0.88;0.75;;;;;;;20.99;100.00;96287.31;5035377;28;20205;-70
2023/08/09 11:10:48;;;;;;;0.40;0.40;;;;;;;20.60;100.00;96289.97;5036226;28;20330;-70
2023/08/09 11:13:18;;;;;;;0.80;0.63;;;;;;;20.75;100.00;96279.59;5036325;28;20247;-70
2023/08/09 11:15:47;;;;;;;0.98;0.75;;;;;;;20.63;100.00;96283.31;5035365;28;20594;-70
2023/08/09 11:18:14;;;;;;;3.90;1.17;;;;;;;20.63;100.00;96284.13;5035359;28;20670;-70
2023/08/09 11:20:42;;;;;;;0.80;0.80;;;;;;;20.87;100.00;96291.06;5036522;28;20209;-70
2023/08/09 11:23:08;;;;;;;0.90;0.63;;;;;;;20.65;100.00;96291.94;5034802;28;20228;-70
2023/08/09 11:25:35;;;;;;;0.82;0.60;;;;;;;20.73;100.00;96294.28;5035572;28;20197;-70